sensor_id;sensor_type;location;lat;lon;timestamp;P1;durP1;ratioP1;P2;durP2;ratioP2
58360;SDS011;44164;44.954;10.068;2023-06-14T00:01:01;3.80;;;2.20;;
58360;SDS011;44164;44.954;10.068;2023-06-14T00:03:29;3.00;;;2.08;;
58360;SDS011;44164;44.954;10.068;2023-06-14T00:05:55;3.40;;;2.05;;
58360;SDS011;44164;44.954;10.068;2023-06-14T00:08:21;3.15;;;1.92;;
58360;SDS011;44164;44.954;10.068;2023-06-14T00:10:48;3.33;;;2.30;;
58360;SDS011;44164;44.954;10.068;2023-06-14T00:13:14;3.33;;;2.40;;
58360;SDS011;44164;44.954;10.068;2023-06-14T00:15:40;3.90;;;2.38;;
58360;SDS011;44164;44.954;10.068;2023-06-14T00:18:06;3.85;;;2.80;;
58360;SDS011;44164;44.954;10.068;2023-06-14T00:20:32;3.53;;;2.60;;
58360;SDS011;44164;44.954;10.068;2023-06-14T00:22:59;3.83;;;1.83;;
58360;SDS011;44164;44.954;10.068;2023-06-14T00:25:26;2.38;;;1.80;;
58360;SDS011;44164;44.954;10.068;2023-06-14T00:27:52;3.30;;;2.00;;
58360;SDS011;44164;44.954;10.068;2023-06-14T00:30:19;3.17;;;2.30;;
58360;SDS011;44164;44.954;10.068;2023-06-14T00:32:46;2.90;;;1.98;;
58360;SDS011;44164;44.954;10.068;2023-06-14T00:35:13;3.83;;;1.88;;
58360;SDS011;44164;44.954;10.068;2023-06-14T00:37:39;3.10;;;2.05;;
58360;SDS011;44164;44.954;10.068;2023-06-14T00:40:06;4.10;;;2.47;;
58360;SDS011;44164;44.954;10.068;2023-06-14T00:42:32;2.78;;;2.33;;
58360;SDS011;44164;44.954;10.068;2023-06-14T00:44:59;3.97;;;2.72;;
58360;SDS011;44164;44.954;10.068;2023-06-14T00:47:25;3.53;;;2.20;;
58360;SDS011;44164;44.954;10.068;2023-06-14T00:49:55;3.08;;;2.33;;
58360;SDS011;44164;44.954;10.068;2023-06-14T00:52:22;3.33;;;2.40;;
58360;SDS011;44164;44.954;10.068;2023-06-14T00:54:50;3.75;;;2.22;;
58360;SDS011;44164;44.954;10.068;2023-06-14T00:57:16;3.42;;;2.30;;
58360;SDS011;44164;44.954;10.068;2023-06-14T00:59:44;4.68;;;2.25;;
58360;SDS011;44164;44.954;10.068;2023-06-14T01:02:12;4.65;;;2.55;;
58360;SDS011;44164;44.954;10.068;2023-06-14T01:04:40;3.67;;;2.25;;
58360;SDS011;44164;44.954;10.068;2023-06-14T01:07:12;3.95;;;2.40;;
58360;SDS011;44164;44.954;10.068;2023-06-14T01:15:09;2.83;;;2.17;;
58360;SDS011;44164;44.954;10.068;2023-06-14T01:17:36;2.75;;;2.42;;
58360;SDS011;44164;44.954;10.068;2023-06-14T01:20:07;3.65;;;2.60;;
58360;SDS011;44164;44.954;10.068;2023-06-14T01:22:48;5.03;;;2.08;;
58360;SDS011;44164;44.954;10.068;2023-06-14T01:25:17;2.53;;;1.90;;
58360;SDS011;44164;44.954;10.068;2023-06-14T01:27:47;4.38;;;2.10;;
58360;SDS011;44164;44.954;10.068;2023-06-14T01:30:15;3.28;;;2.40;;
58360;SDS011;44164;44.954;10.068;2023-06-14T01:32:42;3.83;;;2.53;;
58360;SDS011;44164;44.954;10.068;2023-06-14T01:35:10;4.45;;;2.58;;
58360;SDS011;44164;44.954;10.068;2023-06-14T01:37:36;4.63;;;2.97;;
58360;SDS011;44164;44.954;10.068;2023-06-14T01:40:03;5.03;;;2.65;;
58360;SDS011;44164;44.954;10.068;2023-06-14T01:42:33;2.85;;;2.10;;
58360;SDS011;44164;44.954;10.068;2023-06-14T01:44:59;3.25;;;2.40;;
58360;SDS011;44164;44.954;10.068;2023-06-14T01:47:27;3.95;;;2.95;;
58360;SDS011;44164;44.954;10.068;2023-06-14T01:49:53;2.95;;;2.20;;
58360;SDS011;44164;44.954;10.068;2023-06-14T01:52:19;3.58;;;3.05;;
58360;SDS011;44164;44.954;10.068;2023-06-14T01:57:15;3.92;;;2.60;;
58360;SDS011;44164;44.954;10.068;2023-06-14T01:59:41;3.30;;;2.88;;
58360;SDS011;44164;44.954;10.068;2023-06-14T02:02:08;3.22;;;2.70;;
58360;SDS011;44164;44.954;10.068;2023-06-14T02:04:34;3.92;;;2.67;;
58360;SDS011;44164;44.954;10.068;2023-06-14T02:07:00;6.78;;;3.05;;
58360;SDS011;44164;44.954;10.068;2023-06-14T02:09:26;4.95;;;3.00;;
58360;SDS011;44164;44.954;10.068;2023-06-14T02:11:54;4.35;;;2.88;;
58360;SDS011;44164;44.954;10.068;2023-06-14T02:14:20;4.05;;;3.03;;
58360;SDS011;44164;44.954;10.068;2023-06-14T02:16:46;4.93;;;2.75;;
58360;SDS011;44164;44.954;10.068;2023-06-14T02:19:15;4.03;;;2.95;;
58360;SDS011;44164;44.954;10.068;2023-06-14T02:21:42;3.67;;;2.95;;
58360;SDS011;44164;44.954;10.068;2023-06-14T02:24:08;4.70;;;2.97;;
58360;SDS011;44164;44.954;10.068;2023-06-14T02:26:35;5.85;;;3.05;;
58360;SDS011;44164;44.954;10.068;2023-06-14T02:29:01;4.30;;;2.90;;
58360;SDS011;44164;44.954;10.068;2023-06-14T02:31:27;4.70;;;3.10;;
58360;SDS011;44164;44.954;10.068;2023-06-14T02:33:54;3.67;;;2.95;;
58360;SDS011;44164;44.954;10.068;2023-06-14T02:36:20;7.10;;;3.00;;
58360;SDS011;44164;44.954;10.068;2023-06-14T02:38:46;3.58;;;2.70;;
58360;SDS011;44164;44.954;10.068;2023-06-14T02:41:13;4.65;;;3.35;;
58360;SDS011;44164;44.954;10.068;2023-06-14T02:43:39;4.32;;;3.10;;
58360;SDS011;44164;44.954;10.068;2023-06-14T02:46:06;3.17;;;2.70;;
58360;SDS011;44164;44.954;10.068;2023-06-14T02:48:32;4.05;;;3.55;;
58360;SDS011;44164;44.954;10.068;2023-06-14T02:50:59;6.13;;;3.33;;
58360;SDS011;44164;44.954;10.068;2023-06-14T02:53:25;3.20;;;2.85;;
58360;SDS011;44164;44.954;10.068;2023-06-14T02:55:51;4.95;;;3.10;;
58360;SDS011;44164;44.954;10.068;2023-06-14T02:58:17;3.67;;;2.83;;
58360;SDS011;44164;44.954;10.068;2023-06-14T03:00:44;7.13;;;3.70;;
58360;SDS011;44164;44.954;10.068;2023-06-14T03:03:11;5.35;;;3.30;;
58360;SDS011;44164;44.954;10.068;2023-06-14T03:05:48;6.93;;;3.00;;
58360;SDS011;44164;44.954;10.068;2023-06-14T03:08:19;7.03;;;3.72;;
58360;SDS011;44164;44.954;10.068;2023-06-14T03:10:47;3.90;;;3.47;;
58360;SDS011;44164;44.954;10.068;2023-06-14T03:13:13;3.45;;;2.92;;
58360;SDS011;44164;44.954;10.068;2023-06-14T03:15:43;6.38;;;2.97;;
58360;SDS011;44164;44.954;10.068;2023-06-14T03:18:10;6.40;;;3.25;;
58360;SDS011;44164;44.954;10.068;2023-06-14T03:20:38;3.70;;;2.83;;
58360;SDS011;44164;44.954;10.068;2023-06-14T03:23:06;6.22;;;3.80;;
58360;SDS011;44164;44.954;10.068;2023-06-14T03:25:32;3.58;;;3.00;;
58360;SDS011;44164;44.954;10.068;2023-06-14T03:28:01;4.45;;;3.33;;
58360;SDS011;44164;44.954;10.068;2023-06-14T03:30:29;4.30;;;3.00;;
58360;SDS011;44164;44.954;10.068;2023-06-14T03:32:56;4.00;;;3.50;;
58360;SDS011;44164;44.954;10.068;2023-06-14T03:35:25;6.40;;;3.50;;
58360;SDS011;44164;44.954;10.068;2023-06-14T03:37:52;5.63;;;3.88;;
58360;SDS011;44164;44.954;10.068;2023-06-14T03:40:18;4.57;;;3.15;;
58360;SDS011;44164;44.954;10.068;2023-06-14T03:42:49;3.85;;;2.90;;
58360;SDS011;44164;44.954;10.068;2023-06-14T03:45:15;3.80;;;3.00;;
58360;SDS011;44164;44.954;10.068;2023-06-14T03:47:41;4.10;;;3.25;;
58360;SDS011;44164;44.954;10.068;2023-06-14T03:50:08;4.63;;;3.65;;
58360;SDS011;44164;44.954;10.068;2023-06-14T03:52:34;3.63;;;3.15;;
58360;SDS011;44164;44.954;10.068;2023-06-14T03:55:00;4.68;;;3.20;;
58360;SDS011;44164;44.954;10.068;2023-06-14T03:57:29;6.10;;;3.65;;
58360;SDS011;44164;44.954;10.068;2023-06-14T03:59:56;3.80;;;3.08;;
58360;SDS011;44164;44.954;10.068;2023-06-14T04:02:23;4.78;;;3.58;;
58360;SDS011;44164;44.954;10.068;2023-06-14T04:04:49;5.35;;;3.80;;
58360;SDS011;44164;44.954;10.068;2023-06-14T04:07:17;3.75;;;3.03;;
58360;SDS011;44164;44.954;10.068;2023-06-14T04:09:46;4.47;;;3.47;;
58360;SDS011;44164;44.954;10.068;2023-06-14T04:12:12;4.90;;;3.45;;
58360;SDS011;44164;44.954;10.068;2023-06-14T04:14:39;4.35;;;3.70;;
58360;SDS011;44164;44.954;10.068;2023-06-14T04:17:08;5.40;;;3.25;;
58360;SDS011;44164;44.954;10.068;2023-06-14T04:22:02;5.05;;;3.33;;
58360;SDS011;44164;44.954;10.068;2023-06-14T04:24:31;4.75;;;3.63;;
58360;SDS011;44164;44.954;10.068;2023-06-14T04:27:01;5.57;;;3.20;;
58360;SDS011;44164;44.954;10.068;2023-06-14T04:29:28;6.10;;;3.60;;
58360;SDS011;44164;44.954;10.068;2023-06-14T04:32:05;5.53;;;3.70;;
58360;SDS011;44164;44.954;10.068;2023-06-14T04:34:32;7.20;;;3.92;;
58360;SDS011;44164;44.954;10.068;2023-06-14T04:37:01;6.63;;;3.40;;
58360;SDS011;44164;44.954;10.068;2023-06-14T04:39:33;5.00;;;3.40;;
58360;SDS011;44164;44.954;10.068;2023-06-14T04:42:00;4.72;;;4.00;;
58360;SDS011;44164;44.954;10.068;2023-06-14T04:44:29;5.55;;;3.92;;
58360;SDS011;44164;44.954;10.068;2023-06-14T04:46:59;11.15;;;3.92;;
58360;SDS011;44164;44.954;10.068;2023-06-14T04:49:26;6.57;;;3.88;;
58360;SDS011;44164;44.954;10.068;2023-06-14T04:51:53;4.20;;;3.47;;
58360;SDS011;44164;44.954;10.068;2023-06-14T04:54:31;4.75;;;4.05;;
58360;SDS011;44164;44.954;10.068;2023-06-14T04:57:00;5.40;;;3.75;;
58360;SDS011;44164;44.954;10.068;2023-06-14T04:59:27;5.23;;;4.03;;
58360;SDS011;44164;44.954;10.068;2023-06-14T05:01:53;8.75;;;4.15;;
58360;SDS011;44164;44.954;10.068;2023-06-14T05:04:22;8.68;;;6.03;;
58360;SDS011;44164;44.954;10.068;2023-06-14T05:06:48;11.77;;;9.88;;
58360;SDS011;44164;44.954;10.068;2023-06-14T05:09:15;12.13;;;10.07;;
58360;SDS011;44164;44.954;10.068;2023-06-14T05:11:44;11.93;;;9.00;;
58360;SDS011;44164;44.954;10.068;2023-06-14T05:14:11;15.68;;;12.00;;
58360;SDS011;44164;44.954;10.068;2023-06-14T05:16:38;15.48;;;11.38;;
58360;SDS011;44164;44.954;10.068;2023-06-14T05:19:05;12.43;;;11.00;;
58360;SDS011;44164;44.954;10.068;2023-06-14T05:21:31;14.27;;;11.88;;
58360;SDS011;44164;44.954;10.068;2023-06-14T05:24:00;14.80;;;11.65;;
58360;SDS011;44164;44.954;10.068;2023-06-14T05:26:26;15.75;;;12.90;;
58360;SDS011;44164;44.954;10.068;2023-06-14T05:28:56;16.00;;;12.07;;
58360;SDS011;44164;44.954;10.068;2023-06-14T05:31:22;12.32;;;10.80;;
58360;SDS011;44164;44.954;10.068;2023-06-14T05:33:51;14.00;;;12.10;;
58360;SDS011;44164;44.954;10.068;2023-06-14T05:36:18;15.90;;;13.60;;
58360;SDS011;44164;44.954;10.068;2023-06-14T05:38:45;13.98;;;11.90;;
58360;SDS011;44164;44.954;10.068;2023-06-14T05:41:11;13.40;;;12.10;;
58360;SDS011;44164;44.954;10.068;2023-06-14T05:43:37;18.52;;;13.75;;
58360;SDS011;44164;44.954;10.068;2023-06-14T05:46:03;13.07;;;11.63;;
58360;SDS011;44164;44.954;10.068;2023-06-14T05:48:30;16.73;;;11.95;;
58360;SDS011;44164;44.954;10.068;2023-06-14T05:50:56;16.92;;;12.48;;
58360;SDS011;44164;44.954;10.068;2023-06-14T05:53:22;19.75;;;12.52;;
58360;SDS011;44164;44.954;10.068;2023-06-14T05:55:49;15.13;;;13.13;;
58360;SDS011;44164;44.954;10.068;2023-06-14T05:58:17;17.50;;;13.43;;
58360;SDS011;44164;44.954;10.068;2023-06-14T06:00:43;18.08;;;14.40;;
58360;SDS011;44164;44.954;10.068;2023-06-14T06:03:09;21.13;;;15.52;;
58360;SDS011;44164;44.954;10.068;2023-06-14T06:05:36;21.92;;;15.98;;
58360;SDS011;44164;44.954;10.068;2023-06-14T06:08:03;16.00;;;14.15;;
58360;SDS011;44164;44.954;10.068;2023-06-14T06:10:29;19.95;;;15.48;;
58360;SDS011;44164;44.954;10.068;2023-06-14T06:12:55;22.88;;;17.70;;
58360;SDS011;44164;44.954;10.068;2023-06-14T06:15:21;25.67;;;19.83;;
58360;SDS011;44164;44.954;10.068;2023-06-14T06:17:47;24.77;;;20.63;;
58360;SDS011;44164;44.954;10.068;2023-06-14T06:20:13;27.52;;;19.00;;
58360;SDS011;44164;44.954;10.068;2023-06-14T06:22:40;18.75;;;14.20;;
58360;SDS011;44164;44.954;10.068;2023-06-14T06:25:06;15.13;;;10.63;;
58360;SDS011;44164;44.954;10.068;2023-06-14T06:27:32;14.43;;;11.68;;
58360;SDS011;44164;44.954;10.068;2023-06-14T06:29:58;16.75;;;12.90;;
58360;SDS011;44164;44.954;10.068;2023-06-14T06:32:25;14.15;;;10.57;;
58360;SDS011;44164;44.954;10.068;2023-06-14T06:34:51;16.52;;;11.43;;
58360;SDS011;44164;44.954;10.068;2023-06-14T06:37:17;17.85;;;11.63;;
58360;SDS011;44164;44.954;10.068;2023-06-14T06:39:45;15.05;;;10.77;;
58360;SDS011;44164;44.954;10.068;2023-06-14T06:42:11;14.27;;;10.07;;
58360;SDS011;44164;44.954;10.068;2023-06-14T06:47:05;12.75;;;9.13;;
58360;SDS011;44164;44.954;10.068;2023-06-14T06:49:31;13.70;;;9.02;;
58360;SDS011;44164;44.954;10.068;2023-06-14T06:54:31;11.40;;;7.35;;
58360;SDS011;44164;44.954;10.068;2023-06-14T06:56:57;11.73;;;8.23;;
58360;SDS011;44164;44.954;10.068;2023-06-14T06:59:24;9.07;;;7.22;;
58360;SDS011;44164;44.954;10.068;2023-06-14T07:01:50;9.15;;;7.55;;
58360;SDS011;44164;44.954;10.068;2023-06-14T07:04:16;10.43;;;7.07;;
58360;SDS011;44164;44.954;10.068;2023-06-14T07:06:42;8.50;;;6.53;;
58360;SDS011;44164;44.954;10.068;2023-06-14T07:09:09;8.05;;;6.72;;
58360;SDS011;44164;44.954;10.068;2023-06-14T07:11:39;9.00;;;6.50;;
58360;SDS011;44164;44.954;10.068;2023-06-14T07:14:05;7.90;;;5.88;;
58360;SDS011;44164;44.954;10.068;2023-06-14T07:16:31;9.75;;;6.75;;
58360;SDS011;44164;44.954;10.068;2023-06-14T07:18:58;10.02;;;8.35;;
58360;SDS011;44164;44.954;10.068;2023-06-14T07:21:24;13.38;;;10.05;;
58360;SDS011;44164;44.954;10.068;2023-06-14T07:23:53;17.67;;;12.02;;
58360;SDS011;44164;44.954;10.068;2023-06-14T07:26:19;17.15;;;13.38;;
58360;SDS011;44164;44.954;10.068;2023-06-14T07:28:46;16.10;;;12.85;;
58360;SDS011;44164;44.954;10.068;2023-06-14T07:31:13;14.77;;;13.15;;
58360;SDS011;44164;44.954;10.068;2023-06-14T07:33:40;14.80;;;11.93;;
58360;SDS011;44164;44.954;10.068;2023-06-14T07:36:07;15.05;;;12.35;;
58360;SDS011;44164;44.954;10.068;2023-06-14T07:38:33;15.80;;;13.77;;
58360;SDS011;44164;44.954;10.068;2023-06-14T07:40:59;20.73;;;17.90;;
58360;SDS011;44164;44.954;10.068;2023-06-14T07:43:26;18.08;;;13.80;;
58360;SDS011;44164;44.954;10.068;2023-06-14T07:45:52;15.75;;;14.15;;
58360;SDS011;44164;44.954;10.068;2023-06-14T07:48:18;20.40;;;17.17;;
58360;SDS011;44164;44.954;10.068;2023-06-14T07:50:45;19.63;;;14.55;;
58360;SDS011;44164;44.954;10.068;2023-06-14T07:53:11;16.13;;;14.52;;
58360;SDS011;44164;44.954;10.068;2023-06-14T07:55:37;15.77;;;14.23;;
58360;SDS011;44164;44.954;10.068;2023-06-14T07:58:04;18.40;;;16.50;;
58360;SDS011;44164;44.954;10.068;2023-06-14T08:00:30;17.63;;;14.73;;
58360;SDS011;44164;44.954;10.068;2023-06-14T08:02:57;21.63;;;15.73;;
58360;SDS011;44164;44.954;10.068;2023-06-14T08:05:28;16.48;;;13.40;;
58360;SDS011;44164;44.954;10.068;2023-06-14T08:07:54;15.63;;;14.02;;
58360;SDS011;44164;44.954;10.068;2023-06-14T08:10:22;17.27;;;15.45;;
58360;SDS011;44164;44.954;10.068;2023-06-14T08:12:48;15.73;;;14.07;;
58360;SDS011;44164;44.954;10.068;2023-06-14T08:15:16;20.02;;;14.60;;
58360;SDS011;44164;44.954;10.068;2023-06-14T08:17:43;17.52;;;15.75;;
58360;SDS011;44164;44.954;10.068;2023-06-14T08:20:10;18.60;;;16.37;;
58360;SDS011;44164;44.954;10.068;2023-06-14T08:22:36;16.00;;;14.45;;
58360;SDS011;44164;44.954;10.068;2023-06-14T08:25:03;18.05;;;15.25;;
58360;SDS011;44164;44.954;10.068;2023-06-14T08:27:30;21.30;;;17.52;;
58360;SDS011;44164;44.954;10.068;2023-06-14T08:29:56;20.35;;;16.42;;
58360;SDS011;44164;44.954;10.068;2023-06-14T08:32:22;15.57;;;13.65;;
58360;SDS011;44164;44.954;10.068;2023-06-14T08:34:48;16.02;;;14.43;;
58360;SDS011;44164;44.954;10.068;2023-06-14T08:37:15;15.93;;;13.73;;
58360;SDS011;44164;44.954;10.068;2023-06-14T08:39:41;15.00;;;13.40;;
58360;SDS011;44164;44.954;10.068;2023-06-14T08:42:07;16.13;;;14.55;;
58360;SDS011;44164;44.954;10.068;2023-06-14T08:44:36;16.35;;;14.60;;
58360;SDS011;44164;44.954;10.068;2023-06-14T08:47:02;20.40;;;15.07;;
58360;SDS011;44164;44.954;10.068;2023-06-14T08:49:31;14.52;;;13.00;;
58360;SDS011;44164;44.954;10.068;2023-06-14T08:51:58;13.95;;;11.57;;
58360;SDS011;44164;44.954;10.068;2023-06-14T08:54:26;13.23;;;11.90;;
58360;SDS011;44164;44.954;10.068;2023-06-14T08:56:54;12.07;;;10.88;;
58360;SDS011;44164;44.954;10.068;2023-06-14T08:59:26;11.90;;;10.73;;
58360;SDS011;44164;44.954;10.068;2023-06-14T09:01:53;13.73;;;12.30;;
58360;SDS011;44164;44.954;10.068;2023-06-14T09:04:23;12.43;;;10.88;;
58360;SDS011;44164;44.954;10.068;2023-06-14T09:06:55;15.18;;;10.80;;
58360;SDS011;44164;44.954;10.068;2023-06-14T09:09:22;17.02;;;10.52;;
58360;SDS011;44164;44.954;10.068;2023-06-14T09:11:52;17.50;;;14.57;;
58360;SDS011;44164;44.954;10.068;2023-06-14T09:14:18;13.35;;;11.35;;
58360;SDS011;44164;44.954;10.068;2023-06-14T09:16:44;11.77;;;10.05;;
58360;SDS011;44164;44.954;10.068;2023-06-14T09:19:14;12.13;;;10.82;;
58360;SDS011;44164;44.954;10.068;2023-06-14T09:21:48;16.87;;;12.83;;
58360;SDS011;44164;44.954;10.068;2023-06-14T09:24:14;13.32;;;11.45;;
58360;SDS011;44164;44.954;10.068;2023-06-14T09:26:40;14.57;;;11.45;;
58360;SDS011;44164;44.954;10.068;2023-06-14T09:29:06;13.25;;;10.63;;
58360;SDS011;44164;44.954;10.068;2023-06-14T09:31:32;15.05;;;10.93;;
58360;SDS011;44164;44.954;10.068;2023-06-14T09:33:59;13.48;;;10.13;;
58360;SDS011;44164;44.954;10.068;2023-06-14T09:36:28;11.95;;;10.40;;
58360;SDS011;44164;44.954;10.068;2023-06-14T09:38:58;12.60;;;9.90;;
58360;SDS011;44164;44.954;10.068;2023-06-14T09:41:31;11.05;;;9.80;;
58360;SDS011;44164;44.954;10.068;2023-06-14T09:44:02;13.05;;;11.27;;
58360;SDS011;44164;44.954;10.068;2023-06-14T09:48:55;16.98;;;10.70;;
58360;SDS011;44164;44.954;10.068;2023-06-14T09:51:23;17.98;;;11.82;;
58360;SDS011;44164;44.954;10.068;2023-06-14T09:53:49;12.65;;;11.15;;
58360;SDS011;44164;44.954;10.068;2023-06-14T09:56:17;15.93;;;11.93;;
58360;SDS011;44164;44.954;10.068;2023-06-14T09:58:49;13.18;;;11.70;;
58360;SDS011;44164;44.954;10.068;2023-06-14T10:01:20;11.55;;;10.45;;
58360;SDS011;44164;44.954;10.068;2023-06-14T10:03:46;11.68;;;10.45;;
58360;SDS011;44164;44.954;10.068;2023-06-14T10:06:14;14.57;;;11.57;;
58360;SDS011;44164;44.954;10.068;2023-06-14T10:08:40;13.18;;;10.70;;
58360;SDS011;44164;44.954;10.068;2023-06-14T10:11:06;15.52;;;12.68;;
58360;SDS011;44164;44.954;10.068;2023-06-14T10:13:32;16.15;;;12.00;;
58360;SDS011;44164;44.954;10.068;2023-06-14T10:16:03;13.30;;;10.45;;
58360;SDS011;44164;44.954;10.068;2023-06-14T10:21:49;11.25;;;9.65;;
58360;SDS011;44164;44.954;10.068;2023-06-14T10:24:30;14.05;;;10.35;;
58360;SDS011;44164;44.954;10.068;2023-06-14T10:26:58;16.50;;;11.43;;
58360;SDS011;44164;44.954;10.068;2023-06-14T10:29:28;13.40;;;11.45;;
58360;SDS011;44164;44.954;10.068;2023-06-14T10:31:58;11.52;;;9.68;;
58360;SDS011;44164;44.954;10.068;2023-06-14T10:34:28;11.65;;;10.45;;
58360;SDS011;44164;44.954;10.068;2023-06-14T10:37:05;12.90;;;9.90;;
58360;SDS011;44164;44.954;10.068;2023-06-14T10:39:39;12.70;;;9.05;;
58360;SDS011;44164;44.954;10.068;2023-06-14T10:42:11;12.68;;;9.07;;
58360;SDS011;44164;44.954;10.068;2023-06-14T10:44:51;10.00;;;8.63;;
58360;SDS011;44164;44.954;10.068;2023-06-14T10:47:22;14.85;;;9.25;;
58360;SDS011;44164;44.954;10.068;2023-06-14T10:52:27;11.90;;;10.05;;
58360;SDS011;44164;44.954;10.068;2023-06-14T10:57:55;11.88;;;10.65;;
58360;SDS011;44164;44.954;10.068;2023-06-14T11:00:22;14.80;;;11.57;;
58360;SDS011;44164;44.954;10.068;2023-06-14T11:02:51;15.30;;;11.82;;
58360;SDS011;44164;44.954;10.068;2023-06-14T11:05:30;12.32;;;8.85;;
58360;SDS011;44164;44.954;10.068;2023-06-14T11:10:54;14.45;;;11.25;;
58360;SDS011;44164;44.954;10.068;2023-06-14T11:13:25;16.48;;;11.88;;
58360;SDS011;44164;44.954;10.068;2023-06-14T11:15:51;11.90;;;10.05;;
58360;SDS011;44164;44.954;10.068;2023-06-14T11:18:22;14.98;;;9.15;;
58360;SDS011;44164;44.954;10.068;2023-06-14T11:20:53;17.55;;;11.90;;
58360;SDS011;44164;44.954;10.068;2023-06-14T11:23:20;12.10;;;9.32;;
58360;SDS011;44164;44.954;10.068;2023-06-14T11:25:53;10.75;;;8.82;;
58360;SDS011;44164;44.954;10.068;2023-06-14T11:28:19;10.02;;;9.02;;
58360;SDS011;44164;44.954;10.068;2023-06-14T11:30:47;9.48;;;7.80;;
58360;SDS011;44164;44.954;10.068;2023-06-14T11:33:17;10.45;;;8.18;;
58360;SDS011;44164;44.954;10.068;2023-06-14T11:35:46;12.23;;;8.35;;
58360;SDS011;44164;44.954;10.068;2023-06-14T11:38:12;9.93;;;8.55;;
58360;SDS011;44164;44.954;10.068;2023-06-14T11:40:39;9.38;;;8.30;;
58360;SDS011;44164;44.954;10.068;2023-06-14T11:43:05;10.85;;;9.02;;
58360;SDS011;44164;44.954;10.068;2023-06-14T11:45:32;9.50;;;7.70;;
58360;SDS011;44164;44.954;10.068;2023-06-14T11:47:58;8.65;;;7.75;;
58360;SDS011;44164;44.954;10.068;2023-06-14T11:50:24;12.43;;;9.25;;
58360;SDS011;44164;44.954;10.068;2023-06-14T11:52:55;11.95;;;8.90;;
58360;SDS011;44164;44.954;10.068;2023-06-14T11:55:21;8.38;;;7.50;;
58360;SDS011;44164;44.954;10.068;2023-06-14T11:57:48;8.65;;;7.68;;
58360;SDS011;44164;44.954;10.068;2023-06-14T12:00:15;10.98;;;8.00;;
58360;SDS011;44164;44.954;10.068;2023-06-14T12:02:42;10.45;;;7.40;;
58360;SDS011;44164;44.954;10.068;2023-06-14T12:05:08;8.30;;;7.05;;
58360;SDS011;44164;44.954;10.068;2023-06-14T12:07:38;9.73;;;7.43;;
58360;SDS011;44164;44.954;10.068;2023-06-14T12:10:08;9.00;;;6.85;;
58360;SDS011;44164;44.954;10.068;2023-06-14T12:12:37;13.02;;;10.23;;
58360;SDS011;44164;44.954;10.068;2023-06-14T12:15:04;11.23;;;10.02;;
58360;SDS011;44164;44.954;10.068;2023-06-14T12:17:32;13.85;;;10.13;;
58360;SDS011;44164;44.954;10.068;2023-06-14T12:20:04;12.02;;;9.93;;
58360;SDS011;44164;44.954;10.068;2023-06-14T12:22:33;10.40;;;9.02;;
58360;SDS011;44164;44.954;10.068;2023-06-14T12:24:59;10.90;;;9.10;;
58360;SDS011;44164;44.954;10.068;2023-06-14T12:27:25;9.18;;;8.27;;
58360;SDS011;44164;44.954;10.068;2023-06-14T12:30:01;11.27;;;9.15;;
58360;SDS011;44164;44.954;10.068;2023-06-14T12:32:28;9.65;;;8.15;;
58360;SDS011;44164;44.954;10.068;2023-06-14T12:34:55;11.98;;;9.38;;
58360;SDS011;44164;44.954;10.068;2023-06-14T12:37:21;9.57;;;7.95;;
58360;SDS011;44164;44.954;10.068;2023-06-14T12:39:47;10.13;;;9.05;;
58360;SDS011;44164;44.954;10.068;2023-06-14T12:42:13;8.07;;;7.38;;
58360;SDS011;44164;44.954;10.068;2023-06-14T12:44:40;12.88;;;8.88;;
58360;SDS011;44164;44.954;10.068;2023-06-14T12:47:07;9.40;;;8.50;;
58360;SDS011;44164;44.954;10.068;2023-06-14T12:49:33;12.45;;;7.00;;
58360;SDS011;44164;44.954;10.068;2023-06-14T12:51:59;10.20;;;7.88;;
58360;SDS011;44164;44.954;10.068;2023-06-14T12:54:25;11.38;;;8.85;;
58360;SDS011;44164;44.954;10.068;2023-06-14T12:56:51;7.80;;;6.40;;
58360;SDS011;44164;44.954;10.068;2023-06-14T12:59:18;12.82;;;8.40;;
58360;SDS011;44164;44.954;10.068;2023-06-14T13:01:45;12.10;;;8.50;;
58360;SDS011;44164;44.954;10.068;2023-06-14T13:04:13;9.48;;;6.60;;
58360;SDS011;44164;44.954;10.068;2023-06-14T13:06:39;7.95;;;6.55;;
58360;SDS011;44164;44.954;10.068;2023-06-14T13:09:05;9.40;;;7.32;;
58360;SDS011;44164;44.954;10.068;2023-06-14T13:11:31;9.93;;;8.15;;
58360;SDS011;44164;44.954;10.068;2023-06-14T13:13:57;10.05;;;8.40;;
58360;SDS011;44164;44.954;10.068;2023-06-14T13:16:23;10.27;;;8.50;;
58360;SDS011;44164;44.954;10.068;2023-06-14T13:18:49;9.18;;;7.68;;
58360;SDS011;44164;44.954;10.068;2023-06-14T13:21:15;9.80;;;8.10;;
58360;SDS011;44164;44.954;10.068;2023-06-14T13:23:41;7.40;;;6.70;;
58360;SDS011;44164;44.954;10.068;2023-06-14T13:26:07;8.98;;;6.70;;
58360;SDS011;44164;44.954;10.068;2023-06-14T13:28:34;11.48;;;6.40;;
58360;SDS011;44164;44.954;10.068;2023-06-14T13:31:00;8.30;;;6.43;;
58360;SDS011;44164;44.954;10.068;2023-06-14T13:33:27;8.65;;;5.70;;
58360;SDS011;44164;44.954;10.068;2023-06-14T13:35:53;13.85;;;8.50;;
58360;SDS011;44164;44.954;10.068;2023-06-14T13:38:19;8.05;;;7.00;;
58360;SDS011;44164;44.954;10.068;2023-06-14T13:40:45;12.27;;;7.95;;
58360;SDS011;44164;44.954;10.068;2023-06-14T13:43:12;8.95;;;6.45;;
58360;SDS011;44164;44.954;10.068;2023-06-14T13:45:38;6.78;;;5.63;;
58360;SDS011;44164;44.954;10.068;2023-06-14T13:48:04;8.88;;;6.28;;
58360;SDS011;44164;44.954;10.068;2023-06-14T13:50:30;10.60;;;6.80;;
58360;SDS011;44164;44.954;10.068;2023-06-14T13:52:56;11.00;;;6.70;;
58360;SDS011;44164;44.954;10.068;2023-06-14T13:55:22;11.25;;;6.82;;
58360;SDS011;44164;44.954;10.068;2023-06-14T13:57:48;9.85;;;6.38;;
58360;SDS011;44164;44.954;10.068;2023-06-14T14:00:14;10.45;;;7.03;;
58360;SDS011;44164;44.954;10.068;2023-06-14T14:02:41;8.55;;;6.93;;
58360;SDS011;44164;44.954;10.068;2023-06-14T14:05:08;7.95;;;6.03;;
58360;SDS011;44164;44.954;10.068;2023-06-14T14:07:34;11.27;;;6.10;;
58360;SDS011;44164;44.954;10.068;2023-06-14T14:10:02;8.13;;;6.03;;
58360;SDS011;44164;44.954;10.068;2023-06-14T14:12:28;7.55;;;6.60;;
58360;SDS011;44164;44.954;10.068;2023-06-14T14:14:54;8.48;;;6.20;;
58360;SDS011;44164;44.954;10.068;2023-06-14T14:17:20;10.70;;;6.05;;
58360;SDS011;44164;44.954;10.068;2023-06-14T14:19:47;7.60;;;5.97;;
58360;SDS011;44164;44.954;10.068;2023-06-14T14:22:13;7.88;;;5.95;;
58360;SDS011;44164;44.954;10.068;2023-06-14T14:24:39;9.23;;;6.70;;
58360;SDS011;44164;44.954;10.068;2023-06-14T14:27:05;9.45;;;6.15;;
58360;SDS011;44164;44.954;10.068;2023-06-14T14:29:32;7.20;;;6.43;;
58360;SDS011;44164;44.954;10.068;2023-06-14T14:31:58;6.20;;;5.60;;
58360;SDS011;44164;44.954;10.068;2023-06-14T14:34:24;9.10;;;6.15;;
58360;SDS011;44164;44.954;10.068;2023-06-14T14:36:50;7.78;;;6.13;;
58360;SDS011;44164;44.954;10.068;2023-06-14T14:39:16;6.38;;;5.32;;
58360;SDS011;44164;44.954;10.068;2023-06-14T14:41:43;7.38;;;5.38;;
58360;SDS011;44164;44.954;10.068;2023-06-14T14:44:09;8.43;;;5.68;;
58360;SDS011;44164;44.954;10.068;2023-06-14T14:46:35;7.60;;;5.47;;
58360;SDS011;44164;44.954;10.068;2023-06-14T14:49:01;6.65;;;5.20;;
58360;SDS011;44164;44.954;10.068;2023-06-14T14:51:27;6.22;;;5.63;;
58360;SDS011;44164;44.954;10.068;2023-06-14T14:53:53;6.40;;;5.68;;